Aviation Digital Data Service (ADDS)

Output produced by TAFs form (0753 UTC 22 August 2014)
found at http://aviationweather.gov/adds/tafs/
 
KMTJ 220548Z 2206/2306 14007KT P6SM FEW120 BKN200 
     FM221400 VRB03KT P6SM SCT110 BKN200 
     FM221900 33005KT P6SM VCTS SCT090CB BKN120 
     FM230200 16005KT P6SM VCSH SCT090 BKN150